sensor_id;sensor_type;location;lat;lon;timestamp;P1;durP1;ratioP1;P2;durP2;ratioP2
44536;SDS011;30245;51.966;6.292;2023-05-07T00:00:36;2.90;;;1.40;;
44536;SDS011;30245;51.966;6.292;2023-05-07T00:03:02;1.70;;;1.35;;
44536;SDS011;30245;51.966;6.292;2023-05-07T00:05:28;1.50;;;0.80;;
44536;SDS011;30245;51.966;6.292;2023-05-07T00:07:53;1.70;;;1.40;;
44536;SDS011;30245;51.966;6.292;2023-05-07T00:10:19;2.38;;;1.42;;
44536;SDS011;30245;51.966;6.292;2023-05-07T00:12:44;1.73;;;1.08;;
44536;SDS011;30245;51.966;6.292;2023-05-07T00:15:10;2.55;;;1.42;;
44536;SDS011;30245;51.966;6.292;2023-05-07T00:17:36;1.30;;;1.00;;
44536;SDS011;30245;51.966;6.292;2023-05-07T00:20:02;1.70;;;1.05;;
44536;SDS011;30245;51.966;6.292;2023-05-07T00:22:29;1.75;;;1.30;;
44536;SDS011;30245;51.966;6.292;2023-05-07T00:24:55;3.10;;;1.70;;
44536;SDS011;30245;51.966;6.292;2023-05-07T00:27:21;1.92;;;1.48;;
44536;SDS011;30245;51.966;6.292;2023-05-07T00:29:47;3.08;;;1.50;;
44536;SDS011;30245;51.966;6.292;2023-05-07T00:32:13;4.78;;;1.25;;
44536;SDS011;30245;51.966;6.292;2023-05-07T00:34:39;2.78;;;1.50;;
44536;SDS011;30245;51.966;6.292;2023-05-07T00:37:04;2.10;;;1.40;;
44536;SDS011;30245;51.966;6.292;2023-05-07T00:39:32;6.07;;;1.53;;
44536;SDS011;30245;51.966;6.292;2023-05-07T00:41:58;1.77;;;0.88;;
44536;SDS011;30245;51.966;6.292;2023-05-07T00:44:24;3.47;;;0.88;;
44536;SDS011;30245;51.966;6.292;2023-05-07T00:46:50;2.75;;;1.23;;
44536;SDS011;30245;51.966;6.292;2023-05-07T00:49:16;1.50;;;0.90;;
44536;SDS011;30245;51.966;6.292;2023-05-07T00:51:42;1.83;;;1.15;;
44536;SDS011;30245;51.966;6.292;2023-05-07T00:54:08;3.33;;;1.48;;
44536;SDS011;30245;51.966;6.292;2023-05-07T00:56:34;2.70;;;1.65;;
44536;SDS011;30245;51.966;6.292;2023-05-07T00:59:01;2.10;;;1.00;;
44536;SDS011;30245;51.966;6.292;2023-05-07T01:01:27;2.80;;;1.10;;
44536;SDS011;30245;51.966;6.292;2023-05-07T01:03:53;2.17;;;1.35;;
44536;SDS011;30245;51.966;6.292;2023-05-07T01:06:19;2.70;;;1.60;;
44536;SDS011;30245;51.966;6.292;2023-05-07T01:08:46;2.78;;;1.50;;
44536;SDS011;30245;51.966;6.292;2023-05-07T01:11:12;2.33;;;0.90;;
44536;SDS011;30245;51.966;6.292;2023-05-07T01:13:39;2.33;;;1.55;;
44536;SDS011;30245;51.966;6.292;2023-05-07T01:16:05;3.10;;;1.10;;
44536;SDS011;30245;51.966;6.292;2023-05-07T01:18:31;3.08;;;1.70;;
44536;SDS011;30245;51.966;6.292;2023-05-07T01:20:58;3.63;;;1.40;;
44536;SDS011;30245;51.966;6.292;2023-05-07T01:23:25;1.67;;;1.47;;
44536;SDS011;30245;51.966;6.292;2023-05-07T01:25:52;2.55;;;2.20;;
44536;SDS011;30245;51.966;6.292;2023-05-07T01:28:18;3.03;;;1.77;;
44536;SDS011;30245;51.966;6.292;2023-05-07T01:30:45;2.78;;;2.47;;
44536;SDS011;30245;51.966;6.292;2023-05-07T01:33:15;4.63;;;2.00;;
44536;SDS011;30245;51.966;6.292;2023-05-07T01:35:47;2.78;;;2.22;;
44536;SDS011;30245;51.966;6.292;2023-05-07T01:38:16;3.15;;;2.15;;
44536;SDS011;30245;51.966;6.292;2023-05-07T01:40:43;3.72;;;1.92;;
44536;SDS011;30245;51.966;6.292;2023-05-07T01:43:08;3.22;;;2.78;;
44536;SDS011;30245;51.966;6.292;2023-05-07T01:45:35;4.05;;;2.13;;
44536;SDS011;30245;51.966;6.292;2023-05-07T01:48:01;4.55;;;3.13;;
44536;SDS011;30245;51.966;6.292;2023-05-07T01:50:27;4.25;;;3.88;;
44536;SDS011;30245;51.966;6.292;2023-05-07T01:52:54;4.25;;;3.22;;
44536;SDS011;30245;51.966;6.292;2023-05-07T01:55:20;3.42;;;2.63;;
44536;SDS011;30245;51.966;6.292;2023-05-07T01:57:46;6.40;;;3.65;;
44536;SDS011;30245;51.966;6.292;2023-05-07T02:00:12;4.90;;;2.70;;
44536;SDS011;30245;51.966;6.292;2023-05-07T02:02:38;2.72;;;2.47;;
44536;SDS011;30245;51.966;6.292;2023-05-07T02:05:03;4.78;;;3.75;;
44536;SDS011;30245;51.966;6.292;2023-05-07T02:07:29;3.40;;;3.10;;
44536;SDS011;30245;51.966;6.292;2023-05-07T02:09:55;5.03;;;2.88;;
44536;SDS011;30245;51.966;6.292;2023-05-07T02:12:21;5.38;;;3.60;;
44536;SDS011;30245;51.966;6.292;2023-05-07T02:14:47;7.05;;;3.38;;
44536;SDS011;30245;51.966;6.292;2023-05-07T02:17:13;3.47;;;3.15;;
44536;SDS011;30245;51.966;6.292;2023-05-07T02:19:38;3.00;;;2.75;;
44536;SDS011;30245;51.966;6.292;2023-05-07T02:22:04;4.18;;;3.80;;
44536;SDS011;30245;51.966;6.292;2023-05-07T02:24:29;3.22;;;2.92;;
44536;SDS011;30245;51.966;6.292;2023-05-07T02:26:55;3.97;;;3.38;;
44536;SDS011;30245;51.966;6.292;2023-05-07T02:29:21;2.92;;;2.63;;
44536;SDS011;30245;51.966;6.292;2023-05-07T02:31:46;4.20;;;3.30;;
44536;SDS011;30245;51.966;6.292;2023-05-07T02:34:15;3.60;;;3.30;;
44536;SDS011;30245;51.966;6.292;2023-05-07T02:39:10;4.18;;;3.38;;
44536;SDS011;30245;51.966;6.292;2023-05-07T02:41:36;2.63;;;2.40;;
44536;SDS011;30245;51.966;6.292;2023-05-07T02:44:01;4.28;;;3.92;;
44536;SDS011;30245;51.966;6.292;2023-05-07T02:46:27;5.57;;;4.20;;
44536;SDS011;30245;51.966;6.292;2023-05-07T02:48:52;3.05;;;2.85;;
44536;SDS011;30245;51.966;6.292;2023-05-07T02:51:19;4.65;;;4.03;;
44536;SDS011;30245;51.966;6.292;2023-05-07T02:53:46;3.58;;;3.28;;
44536;SDS011;30245;51.966;6.292;2023-05-07T02:56:12;2.88;;;2.67;;
44536;SDS011;30245;51.966;6.292;2023-05-07T02:58:37;4.70;;;4.28;;
44536;SDS011;30245;51.966;6.292;2023-05-07T03:01:07;4.43;;;3.88;;
44536;SDS011;30245;51.966;6.292;2023-05-07T03:03:33;3.72;;;3.42;;
44536;SDS011;30245;51.966;6.292;2023-05-07T03:05:59;3.85;;;3.55;;
44536;SDS011;30245;51.966;6.292;2023-05-07T03:08:25;4.13;;;3.58;;
44536;SDS011;30245;51.966;6.292;2023-05-07T03:10:51;4.13;;;3.83;;
44536;SDS011;30245;51.966;6.292;2023-05-07T03:13:17;3.05;;;2.70;;
44536;SDS011;30245;51.966;6.292;2023-05-07T03:15:42;3.92;;;3.63;;
44536;SDS011;30245;51.966;6.292;2023-05-07T03:18:08;3.08;;;2.85;;
44536;SDS011;30245;51.966;6.292;2023-05-07T03:20:33;6.57;;;4.57;;
44536;SDS011;30245;51.966;6.292;2023-05-07T03:22:59;4.30;;;3.47;;
44536;SDS011;30245;51.966;6.292;2023-05-07T03:25:25;4.90;;;4.50;;
44536;SDS011;30245;51.966;6.292;2023-05-07T03:27:50;3.08;;;2.85;;
44536;SDS011;30245;51.966;6.292;2023-05-07T03:30:16;3.95;;;2.80;;
44536;SDS011;30245;51.966;6.292;2023-05-07T03:32:42;3.75;;;3.00;;
44536;SDS011;30245;51.966;6.292;2023-05-07T03:35:07;4.22;;;3.65;;
44536;SDS011;30245;51.966;6.292;2023-05-07T03:37:33;3.33;;;2.78;;
44536;SDS011;30245;51.966;6.292;2023-05-07T03:39:59;3.83;;;3.28;;
44536;SDS011;30245;51.966;6.292;2023-05-07T03:42:24;5.47;;;3.78;;
44536;SDS011;30245;51.966;6.292;2023-05-07T03:44:50;4.15;;;3.55;;
44536;SDS011;30245;51.966;6.292;2023-05-07T03:47:15;4.20;;;3.80;;
44536;SDS011;30245;51.966;6.292;2023-05-07T03:49:41;3.28;;;2.97;;
44536;SDS011;30245;51.966;6.292;2023-05-07T03:52:06;3.25;;;3.05;;
44536;SDS011;30245;51.966;6.292;2023-05-07T03:54:32;4.45;;;3.20;;
44536;SDS011;30245;51.966;6.292;2023-05-07T03:56:57;4.15;;;3.85;;
44536;SDS011;30245;51.966;6.292;2023-05-07T03:59:23;3.42;;;3.22;;
44536;SDS011;30245;51.966;6.292;2023-05-07T04:01:48;3.63;;;3.25;;
44536;SDS011;30245;51.966;6.292;2023-05-07T04:04:14;3.85;;;3.50;;
44536;SDS011;30245;51.966;6.292;2023-05-07T04:06:40;4.72;;;4.38;;
44536;SDS011;30245;51.966;6.292;2023-05-07T04:09:06;4.10;;;3.80;;
44536;SDS011;30245;51.966;6.292;2023-05-07T04:11:32;4.78;;;4.38;;
44536;SDS011;30245;51.966;6.292;2023-05-07T04:13:58;5.25;;;4.85;;
44536;SDS011;30245;51.966;6.292;2023-05-07T04:16:23;4.28;;;3.83;;
44536;SDS011;30245;51.966;6.292;2023-05-07T04:18:49;3.83;;;3.63;;
44536;SDS011;30245;51.966;6.292;2023-05-07T04:21:18;4.75;;;4.35;;
44536;SDS011;30245;51.966;6.292;2023-05-07T04:23:45;4.43;;;4.10;;
44536;SDS011;30245;51.966;6.292;2023-05-07T04:26:11;4.82;;;4.45;;
44536;SDS011;30245;51.966;6.292;2023-05-07T04:28:37;4.93;;;4.47;;
44536;SDS011;30245;51.966;6.292;2023-05-07T04:31:04;4.40;;;4.05;;
44536;SDS011;30245;51.966;6.292;2023-05-07T04:33:30;5.57;;;5.07;;
44536;SDS011;30245;51.966;6.292;2023-05-07T04:35:56;4.75;;;4.07;;
44536;SDS011;30245;51.966;6.292;2023-05-07T04:38:21;4.80;;;4.22;;
44536;SDS011;30245;51.966;6.292;2023-05-07T04:40:48;5.43;;;5.10;;
44536;SDS011;30245;51.966;6.292;2023-05-07T04:43:14;5.35;;;4.85;;
44536;SDS011;30245;51.966;6.292;2023-05-07T04:45:41;5.38;;;4.90;;
44536;SDS011;30245;51.966;6.292;2023-05-07T04:48:06;8.85;;;4.88;;
44536;SDS011;30245;51.966;6.292;2023-05-07T04:50:33;5.25;;;4.75;;
44536;SDS011;30245;51.966;6.292;2023-05-07T04:52:59;5.30;;;4.82;;
44536;SDS011;30245;51.966;6.292;2023-05-07T04:55:24;5.00;;;4.68;;
44536;SDS011;30245;51.966;6.292;2023-05-07T04:57:51;7.15;;;6.22;;
44536;SDS011;30245;51.966;6.292;2023-05-07T05:00:17;4.90;;;4.53;;
44536;SDS011;30245;51.966;6.292;2023-05-07T05:02:44;6.32;;;5.82;;
44536;SDS011;30245;51.966;6.292;2023-05-07T05:05:10;4.57;;;4.15;;
44536;SDS011;30245;51.966;6.292;2023-05-07T05:07:36;5.00;;;4.32;;
44536;SDS011;30245;51.966;6.292;2023-05-07T05:10:02;5.60;;;5.10;;
44536;SDS011;30245;51.966;6.292;2023-05-07T05:12:28;5.13;;;4.72;;
44536;SDS011;30245;51.966;6.292;2023-05-07T05:14:55;4.85;;;4.50;;
44536;SDS011;30245;51.966;6.292;2023-05-07T05:17:20;4.35;;;4.05;;
44536;SDS011;30245;51.966;6.292;2023-05-07T05:19:46;5.10;;;4.00;;
44536;SDS011;30245;51.966;6.292;2023-05-07T05:22:11;4.88;;;4.47;;
44536;SDS011;30245;51.966;6.292;2023-05-07T05:24:37;6.25;;;5.75;;
44536;SDS011;30245;51.966;6.292;2023-05-07T05:27:02;4.90;;;4.60;;
44536;SDS011;30245;51.966;6.292;2023-05-07T05:29:29;4.82;;;4.43;;
44536;SDS011;30245;51.966;6.292;2023-05-07T05:31:56;4.28;;;3.88;;
44536;SDS011;30245;51.966;6.292;2023-05-07T05:34:21;4.35;;;3.95;;
44536;SDS011;30245;51.966;6.292;2023-05-07T05:36:47;4.43;;;4.07;;
44536;SDS011;30245;51.966;6.292;2023-05-07T05:39:13;4.35;;;3.95;;
44536;SDS011;30245;51.966;6.292;2023-05-07T05:41:39;3.92;;;3.50;;
44536;SDS011;30245;51.966;6.292;2023-05-07T05:44:05;4.80;;;4.45;;
44536;SDS011;30245;51.966;6.292;2023-05-07T05:46:30;6.53;;;6.03;;
44536;SDS011;30245;51.966;6.292;2023-05-07T05:48:56;5.35;;;4.95;;
44536;SDS011;30245;51.966;6.292;2023-05-07T05:51:22;5.72;;;5.22;;
44536;SDS011;30245;51.966;6.292;2023-05-07T05:53:48;4.97;;;4.57;;
44536;SDS011;30245;51.966;6.292;2023-05-07T05:56:13;4.80;;;4.45;;
44536;SDS011;30245;51.966;6.292;2023-05-07T05:58:40;5.38;;;4.93;;
44536;SDS011;30245;51.966;6.292;2023-05-07T06:01:06;5.68;;;5.18;;
44536;SDS011;30245;51.966;6.292;2023-05-07T06:03:31;5.88;;;5.47;;
44536;SDS011;30245;51.966;6.292;2023-05-07T06:05:57;6.43;;;6.03;;
44536;SDS011;30245;51.966;6.292;2023-05-07T06:08:23;7.30;;;6.60;;
44536;SDS011;30245;51.966;6.292;2023-05-07T06:10:48;7.00;;;6.35;;
44536;SDS011;30245;51.966;6.292;2023-05-07T06:13:14;6.75;;;6.15;;
44536;SDS011;30245;51.966;6.292;2023-05-07T06:15:40;7.18;;;6.47;;
44536;SDS011;30245;51.966;6.292;2023-05-07T06:18:06;7.00;;;6.22;;
44536;SDS011;30245;51.966;6.292;2023-05-07T06:20:31;5.40;;;5.00;;
44536;SDS011;30245;51.966;6.292;2023-05-07T06:22:57;6.30;;;5.80;;
44536;SDS011;30245;51.966;6.292;2023-05-07T06:25:22;6.57;;;5.65;;
44536;SDS011;30245;51.966;6.292;2023-05-07T06:27:48;6.75;;;5.78;;
44536;SDS011;30245;51.966;6.292;2023-05-07T06:30:14;6.88;;;6.05;;
44536;SDS011;30245;51.966;6.292;2023-05-07T06:32:40;7.47;;;6.88;;
44536;SDS011;30245;51.966;6.292;2023-05-07T06:35:06;7.88;;;6.63;;
44536;SDS011;30245;51.966;6.292;2023-05-07T06:37:32;6.43;;;5.82;;
44536;SDS011;30245;51.966;6.292;2023-05-07T06:39:57;10.45;;;7.70;;
44536;SDS011;30245;51.966;6.292;2023-05-07T06:42:23;7.88;;;7.10;;
44536;SDS011;30245;51.966;6.292;2023-05-07T06:44:48;8.98;;;8.18;;
44536;SDS011;30245;51.966;6.292;2023-05-07T06:47:14;7.05;;;6.45;;
44536;SDS011;30245;51.966;6.292;2023-05-07T06:49:40;8.70;;;7.38;;
44536;SDS011;30245;51.966;6.292;2023-05-07T06:52:05;8.60;;;7.80;;
44536;SDS011;30245;51.966;6.292;2023-05-07T06:54:31;7.35;;;6.75;;
44536;SDS011;30245;51.966;6.292;2023-05-07T06:56:56;8.30;;;7.50;;
44536;SDS011;30245;51.966;6.292;2023-05-07T06:59:22;8.18;;;7.47;;
44536;SDS011;30245;51.966;6.292;2023-05-07T07:01:48;9.63;;;8.73;;
44536;SDS011;30245;51.966;6.292;2023-05-07T07:04:14;8.23;;;7.43;;
44536;SDS011;30245;51.966;6.292;2023-05-07T07:06:39;11.23;;;8.27;;
44536;SDS011;30245;51.966;6.292;2023-05-07T07:09:05;8.07;;;7.32;;
44536;SDS011;30245;51.966;6.292;2023-05-07T07:11:31;10.32;;;9.32;;
44536;SDS011;30245;51.966;6.292;2023-05-07T07:13:56;9.07;;;8.18;;
44536;SDS011;30245;51.966;6.292;2023-05-07T07:16:22;11.27;;;10.18;;
44536;SDS011;30245;51.966;6.292;2023-05-07T07:18:48;9.52;;;8.63;;
44536;SDS011;30245;51.966;6.292;2023-05-07T07:21:13;10.20;;;8.63;;
44536;SDS011;30245;51.966;6.292;2023-05-07T07:23:39;9.13;;;8.25;;
44536;SDS011;30245;51.966;6.292;2023-05-07T07:26:05;7.97;;;7.28;;
44536;SDS011;30245;51.966;6.292;2023-05-07T07:28:31;10.23;;;8.70;;
44536;SDS011;30245;51.966;6.292;2023-05-07T07:30:57;9.60;;;8.68;;
44536;SDS011;30245;51.966;6.292;2023-05-07T07:33:22;10.27;;;8.63;;
44536;SDS011;30245;51.966;6.292;2023-05-07T07:35:48;11.15;;;7.28;;
44536;SDS011;30245;51.966;6.292;2023-05-07T07:38:13;8.57;;;7.75;;
44536;SDS011;30245;51.966;6.292;2023-05-07T07:40:39;9.18;;;8.27;;
44536;SDS011;30245;51.966;6.292;2023-05-07T07:43:04;8.40;;;7.70;;
44536;SDS011;30245;51.966;6.292;2023-05-07T07:45:31;9.80;;;8.68;;
44536;SDS011;30245;51.966;6.292;2023-05-07T07:47:56;9.27;;;8.38;;
44536;SDS011;30245;51.966;6.292;2023-05-07T07:50:22;9.50;;;7.60;;
44536;SDS011;30245;51.966;6.292;2023-05-07T07:52:48;11.32;;;7.88;;
44536;SDS011;30245;51.966;6.292;2023-05-07T07:55:13;7.63;;;6.93;;
44536;SDS011;30245;51.966;6.292;2023-05-07T07:57:42;9.50;;;6.95;;
44536;SDS011;30245;51.966;6.292;2023-05-07T08:00:08;7.40;;;6.53;;
44536;SDS011;30245;51.966;6.292;2023-05-07T08:02:34;10.25;;;7.93;;
44536;SDS011;30245;51.966;6.292;2023-05-07T08:05:00;8.27;;;7.47;;
44536;SDS011;30245;51.966;6.292;2023-05-07T08:07:25;9.88;;;8.88;;
44536;SDS011;30245;51.966;6.292;2023-05-07T08:09:51;8.85;;;6.38;;
44536;SDS011;30245;51.966;6.292;2023-05-07T08:12:16;6.95;;;6.32;;
44536;SDS011;30245;51.966;6.292;2023-05-07T08:14:42;6.47;;;5.97;;
44536;SDS011;30245;51.966;6.292;2023-05-07T08:17:08;7.88;;;7.18;;
44536;SDS011;30245;51.966;6.292;2023-05-07T08:19:35;6.70;;;6.10;;
44536;SDS011;30245;51.966;6.292;2023-05-07T08:22:01;6.57;;;5.97;;
44536;SDS011;30245;51.966;6.292;2023-05-07T08:24:27;6.50;;;5.90;;
44536;SDS011;30245;51.966;6.292;2023-05-07T08:26:53;6.43;;;5.75;;
44536;SDS011;30245;51.966;6.292;2023-05-07T08:29:19;5.93;;;5.32;;
44536;SDS011;30245;51.966;6.292;2023-05-07T08:31:44;7.10;;;6.40;;
44536;SDS011;30245;51.966;6.292;2023-05-07T08:34:10;6.80;;;6.20;;
44536;SDS011;30245;51.966;6.292;2023-05-07T08:36:36;7.68;;;6.50;;
44536;SDS011;30245;51.966;6.292;2023-05-07T08:39:01;6.72;;;6.13;;
44536;SDS011;30245;51.966;6.292;2023-05-07T08:41:27;7.00;;;5.28;;
44536;SDS011;30245;51.966;6.292;2023-05-07T08:43:52;5.60;;;5.18;;
44536;SDS011;30245;51.966;6.292;2023-05-07T08:46:21;7.78;;;5.40;;
44536;SDS011;30245;51.966;6.292;2023-05-07T08:48:47;5.93;;;5.22;;
44536;SDS011;30245;51.966;6.292;2023-05-07T08:51:15;6.27;;;5.77;;
44536;SDS011;30245;51.966;6.292;2023-05-07T08:53:43;5.10;;;4.68;;
44536;SDS011;30245;51.966;6.292;2023-05-07T08:56:11;6.07;;;5.68;;
44536;SDS011;30245;51.966;6.292;2023-05-07T08:58:37;7.05;;;6.32;;
44536;SDS011;30245;51.966;6.292;2023-05-07T09:01:09;5.60;;;5.07;;
44536;SDS011;30245;51.966;6.292;2023-05-07T09:03:41;6.15;;;5.13;;
44536;SDS011;30245;51.966;6.292;2023-05-07T09:06:10;5.20;;;4.78;;
44536;SDS011;30245;51.966;6.292;2023-05-07T09:08:35;5.88;;;5.38;;
44536;SDS011;30245;51.966;6.292;2023-05-07T09:11:01;4.88;;;4.50;;
44536;SDS011;30245;51.966;6.292;2023-05-07T09:13:27;3.95;;;3.55;;
44536;SDS011;30245;51.966;6.292;2023-05-07T09:15:53;4.40;;;4.00;;
44536;SDS011;30245;51.966;6.292;2023-05-07T09:18:19;4.07;;;3.60;;
44536;SDS011;30245;51.966;6.292;2023-05-07T09:20:45;4.50;;;4.10;;
44536;SDS011;30245;51.966;6.292;2023-05-07T09:23:10;4.28;;;3.88;;
44536;SDS011;30245;51.966;6.292;2023-05-07T09:25:36;4.82;;;3.47;;
44536;SDS011;30245;51.966;6.292;2023-05-07T09:28:02;3.65;;;3.33;;
44536;SDS011;30245;51.966;6.292;2023-05-07T09:30:29;3.33;;;3.03;;
44536;SDS011;30245;51.966;6.292;2023-05-07T09:32:56;4.05;;;2.50;;
44536;SDS011;30245;51.966;6.292;2023-05-07T09:35:25;2.67;;;2.30;;
44536;SDS011;30245;51.966;6.292;2023-05-07T09:37:55;3.25;;;1.40;;
44536;SDS011;30245;51.966;6.292;2023-05-07T09:40:25;4.50;;;3.70;;
44536;SDS011;30245;51.966;6.292;2023-05-07T09:42:53;5.40;;;2.80;;
44536;SDS011;30245;51.966;6.292;2023-05-07T09:45:22;2.88;;;2.53;;
44536;SDS011;30245;51.966;6.292;2023-05-07T09:47:50;3.28;;;2.25;;
44536;SDS011;30245;51.966;6.292;2023-05-07T09:50:19;3.63;;;2.60;;
44536;SDS011;30245;51.966;6.292;2023-05-07T09:52:51;2.80;;;2.08;;
44536;SDS011;30245;51.966;6.292;2023-05-07T09:55:17;3.15;;;2.40;;
44536;SDS011;30245;51.966;6.292;2023-05-07T09:57:43;2.72;;;2.28;;
44536;SDS011;30245;51.966;6.292;2023-05-07T10:00:11;2.73;;;2.23;;
44536;SDS011;30245;51.966;6.292;2023-05-07T10:02:37;2.42;;;1.88;;
44536;SDS011;30245;51.966;6.292;2023-05-07T10:05:11;3.17;;;1.45;;
44536;SDS011;30245;51.966;6.292;2023-05-07T10:07:38;1.52;;;1.17;;
44536;SDS011;30245;51.966;6.292;2023-05-07T10:10:04;2.20;;;1.42;;
44536;SDS011;30245;51.966;6.292;2023-05-07T10:12:31;3.28;;;1.70;;
44536;SDS011;30245;51.966;6.292;2023-05-07T10:15:02;2.60;;;1.80;;
44536;SDS011;30245;51.966;6.292;2023-05-07T10:17:33;2.67;;;2.03;;
44536;SDS011;30245;51.966;6.292;2023-05-07T10:20:00;1.98;;;1.67;;
44536;SDS011;30245;51.966;6.292;2023-05-07T10:22:26;3.63;;;1.58;;
44536;SDS011;30245;51.966;6.292;2023-05-07T10:24:54;2.03;;;1.83;;
44536;SDS011;30245;51.966;6.292;2023-05-07T10:27:24;2.50;;;2.20;;
44536;SDS011;30245;51.966;6.292;2023-05-07T10:32:48;2.25;;;1.55;;
44536;SDS011;30245;51.966;6.292;2023-05-07T10:35:17;4.50;;;2.33;;
44536;SDS011;30245;51.966;6.292;2023-05-07T10:37:46;3.38;;;2.22;;
44536;SDS011;30245;51.966;6.292;2023-05-07T10:40:13;2.55;;;1.90;;
44536;SDS011;30245;51.966;6.292;2023-05-07T10:42:52;3.67;;;2.58;;
44536;SDS011;30245;51.966;6.292;2023-05-07T10:45:19;2.05;;;1.65;;
44536;SDS011;30245;51.966;6.292;2023-05-07T10:50:40;1.70;;;1.42;;
44536;SDS011;30245;51.966;6.292;2023-05-07T10:58:22;2.63;;;1.77;;
44536;SDS011;30245;51.966;6.292;2023-05-07T11:00:50;2.67;;;1.35;;
44536;SDS011;30245;51.966;6.292;2023-05-07T11:03:16;3.10;;;1.50;;
44536;SDS011;30245;51.966;6.292;2023-05-07T11:05:42;1.50;;;1.13;;
44536;SDS011;30245;51.966;6.292;2023-05-07T11:08:08;2.50;;;1.35;;
44536;SDS011;30245;51.966;6.292;2023-05-07T11:16:19;2.00;;;1.30;;
44536;SDS011;30245;51.966;6.292;2023-05-07T11:18:52;1.85;;;0.77;;
44536;SDS011;30245;51.966;6.292;2023-05-07T11:21:37;2.15;;;0.80;;
44536;SDS011;30245;51.966;6.292;2023-05-07T11:24:04;2.97;;;1.10;;
44536;SDS011;30245;51.966;6.292;2023-05-07T11:26:43;2.10;;;1.58;;
44536;SDS011;30245;51.966;6.292;2023-05-07T11:29:19;2.05;;;1.80;;
44536;SDS011;30245;51.966;6.292;2023-05-07T11:31:50;1.85;;;1.15;;
44536;SDS011;30245;51.966;6.292;2023-05-07T11:34:20;1.67;;;0.88;;
44536;SDS011;30245;51.966;6.292;2023-05-07T11:36:47;0.80;;;0.60;;
44536;SDS011;30245;51.966;6.292;2023-05-07T11:39:28;3.53;;;0.90;;
44536;SDS011;30245;51.966;6.292;2023-05-07T11:41:53;1.95;;;0.88;;
44536;SDS011;30245;51.966;6.292;2023-05-07T11:44:19;1.30;;;0.80;;
44536;SDS011;30245;51.966;6.292;2023-05-07T11:46:45;4.50;;;0.75;;
44536;SDS011;30245;51.966;6.292;2023-05-07T11:49:11;1.55;;;0.85;;
44536;SDS011;30245;51.966;6.292;2023-05-07T11:51:37;3.70;;;1.17;;
44536;SDS011;30245;51.966;6.292;2023-05-07T11:54:04;1.42;;;0.93;;
44536;SDS011;30245;51.966;6.292;2023-05-07T11:56:33;2.42;;;1.25;;
44536;SDS011;30245;51.966;6.292;2023-05-07T11:59:00;0.90;;;0.52;;
44536;SDS011;30245;51.966;6.292;2023-05-07T12:01:26;2.17;;;1.20;;
44536;SDS011;30245;51.966;6.292;2023-05-07T12:03:52;2.55;;;1.23;;
44536;SDS011;30245;51.966;6.292;2023-05-07T12:06:20;2.35;;;1.10;;
44536;SDS011;30245;51.966;6.292;2023-05-07T12:08:46;2.60;;;1.40;;
44536;SDS011;30245;51.966;6.292;2023-05-07T12:11:15;6.63;;;1.38;;
44536;SDS011;30245;51.966;6.292;2023-05-07T12:13:46;1.60;;;1.10;;
44536;SDS011;30245;51.966;6.292;2023-05-07T12:16:12;1.48;;;1.10;;
44536;SDS011;30245;51.966;6.292;2023-05-07T12:18:37;1.42;;;0.85;;
44536;SDS011;30245;51.966;6.292;2023-05-07T12:21:04;1.70;;;1.13;;
44536;SDS011;30245;51.966;6.292;2023-05-07T12:23:31;3.03;;;1.00;;
44536;SDS011;30245;51.966;6.292;2023-05-07T12:25:58;3.15;;;1.00;;
44536;SDS011;30245;51.966;6.292;2023-05-07T12:28:24;2.03;;;1.15;;
44536;SDS011;30245;51.966;6.292;2023-05-07T12:30:50;6.20;;;1.50;;
44536;SDS011;30245;51.966;6.292;2023-05-07T12:33:17;6.18;;;2.13;;
44536;SDS011;30245;51.966;6.292;2023-05-07T12:35:47;2.95;;;0.95;;
44536;SDS011;30245;51.966;6.292;2023-05-07T12:38:13;2.72;;;1.30;;
44536;SDS011;30245;51.966;6.292;2023-05-07T12:40:53;2.78;;;1.42;;
44536;SDS011;30245;51.966;6.292;2023-05-07T12:43:20;1.70;;;1.30;;
44536;SDS011;30245;51.966;6.292;2023-05-07T12:45:47;2.08;;;0.90;;
44536;SDS011;30245;51.966;6.292;2023-05-07T12:48:15;1.48;;;1.02;;
44536;SDS011;30245;51.966;6.292;2023-05-07T12:50:40;1.38;;;1.00;;
44536;SDS011;30245;51.966;6.292;2023-05-07T12:53:06;1.30;;;0.88;;
44536;SDS011;30245;51.966;6.292;2023-05-07T12:55:40;2.38;;;1.10;;
44536;SDS011;30245;51.966;6.292;2023-05-07T12:58:07;1.50;;;0.80;;
44536;SDS011;30245;51.966;6.292;2023-05-07T13:00:34;1.00;;;0.68;;
44536;SDS011;30245;51.966;6.292;2023-05-07T13:03:00;3.47;;;1.02;;
44536;SDS011;30245;51.966;6.292;2023-05-07T13:05:26;2.15;;;1.27;;
44536;SDS011;30245;51.966;6.292;2023-05-07T13:07:52;1.17;;;0.75;;
44536;SDS011;30245;51.966;6.292;2023-05-07T13:10:19;2.85;;;0.95;;
44536;SDS011;30245;51.966;6.292;2023-05-07T13:12:44;1.52;;;0.88;;
44536;SDS011;30245;51.966;6.292;2023-05-07T13:15:10;2.15;;;0.73;;
44536;SDS011;30245;51.966;6.292;2023-05-07T13:17:35;1.95;;;0.93;;
44536;SDS011;30245;51.966;6.292;2023-05-07T13:20:01;1.33;;;0.77;;
44536;SDS011;30245;51.966;6.292;2023-05-07T13:22:28;1.85;;;0.98;;
44536;SDS011;30245;51.966;6.292;2023-05-07T13:24:53;1.85;;;1.10;;
44536;SDS011;30245;51.966;6.292;2023-05-07T13:27:19;3.63;;;1.25;;
44536;SDS011;30245;51.966;6.292;2023-05-07T13:29:45;2.53;;;1.20;;
44536;SDS011;30245;51.966;6.292;2023-05-07T13:32:11;1.05;;;0.60;;
44536;SDS011;30245;51.966;6.292;2023-05-07T13:34:36;1.15;;;0.85;;
44536;SDS011;30245;51.966;6.292;2023-05-07T13:37:02;2.20;;;1.20;;
44536;SDS011;30245;51.966;6.292;2023-05-07T13:39:28;2.55;;;1.23;;
44536;SDS011;30245;51.966;6.292;2023-05-07T13:41:53;1.30;;;0.73;;
44536;SDS011;30245;51.966;6.292;2023-05-07T13:44:19;1.42;;;0.93;;
44536;SDS011;30245;51.966;6.292;2023-05-07T13:46:45;1.50;;;0.75;;
44536;SDS011;30245;51.966;6.292;2023-05-07T13:49:11;2.03;;;1.38;;
44536;SDS011;30245;51.966;6.292;2023-05-07T13:51:37;2.28;;;1.33;;
44536;SDS011;30245;51.966;6.292;2023-05-07T13:54:03;2.38;;;1.48;;
44536;SDS011;30245;51.966;6.292;2023-05-07T13:56:29;1.73;;;1.15;;
44536;SDS011;30245;51.966;6.292;2023-05-07T13:58:57;2.38;;;1.10;;
44536;SDS011;30245;51.966;6.292;2023-05-07T14:01:23;2.15;;;1.60;;
44536;SDS011;30245;51.966;6.292;2023-05-07T14:03:48;3.28;;;1.92;;
44536;SDS011;30245;51.966;6.292;2023-05-07T14:06:14;3.20;;;1.27;;
44536;SDS011;30245;51.966;6.292;2023-05-07T14:08:40;2.28;;;1.63;;
44536;SDS011;30245;51.966;6.292;2023-05-07T14:11:05;1.70;;;1.02;;
44536;SDS011;30245;51.966;6.292;2023-05-07T14:13:31;2.95;;;1.13;;
44536;SDS011;30245;51.966;6.292;2023-05-07T14:15:57;1.95;;;1.27;;
44536;SDS011;30245;51.966;6.292;2023-05-07T14:18:23;1.65;;;1.00;;
44536;SDS011;30245;51.966;6.292;2023-05-07T14:20:48;3.25;;;0.98;;
44536;SDS011;30245;51.966;6.292;2023-05-07T14:23:14;3.28;;;1.15;;
44536;SDS011;30245;51.966;6.292;2023-05-07T14:25:40;2.88;;;1.10;;
44536;SDS011;30245;51.966;6.292;2023-05-07T14:28:06;2.35;;;1.23;;
44536;SDS011;30245;51.966;6.292;2023-05-07T14:30:31;1.98;;;0.90;;
44536;SDS011;30245;51.966;6.292;2023-05-07T14:32:57;2.08;;;1.27;;
44536;SDS011;30245;51.966;6.292;2023-05-07T14:35:23;1.65;;;0.65;;
44536;SDS011;30245;51.966;6.292;2023-05-07T14:37:48;1.60;;;1.42;;
44536;SDS011;30245;51.966;6.292;2023-05-07T14:40:14;3.75;;;1.40;;
44536;SDS011;30245;51.966;6.292;2023-05-07T14:42:39;3.28;;;1.42;;
44536;SDS011;30245;51.966;6.292;2023-05-07T14:45:05;1.80;;;1.40;;
44536;SDS011;30245;51.966;6.292;2023-05-07T14:47:31;1.38;;;1.20;;
44536;SDS011;30245;51.966;6.292;2023-05-07T14:49:57;2.10;;;1.40;;
44536;SDS011;30245;51.966;6.292;2023-05-07T14:52:23;2.50;;;1.33;;
44536;SDS011;30245;51.966;6.292;2023-05-07T14:54:49;3.80;;;1.42;;
44536;SDS011;30245;51.966;6.292;2023-05-07T14:57:14;2.40;;;1.40;;
44536;SDS011;30245;51.966;6.292;2023-05-07T14:59:44;2.17;;;1.08;;
44536;SDS011;30245;51.966;6.292;2023-05-07T15:02:10;3.28;;;2.05;;